sensor_id;sensor_type;location;lat;lon;timestamp;P1;durP1;ratioP1;P2;durP2;ratioP2
20383;SDS011;46458;50.966;7.002;2022-07-29T00:01:34;5.05;;;2.05;;
20383;SDS011;46458;50.966;7.002;2022-07-29T00:04:03;5.13;;;1.70;;
20383;SDS011;46458;50.966;7.002;2022-07-29T00:06:35;3.83;;;1.60;;
20383;SDS011;46458;50.966;7.002;2022-07-29T00:09:03;2.40;;;1.52;;
20383;SDS011;46458;50.966;7.002;2022-07-29T00:11:33;3.67;;;1.65;;
20383;SDS011;46458;50.966;7.002;2022-07-29T00:14:02;4.13;;;2.17;;
20383;SDS011;46458;50.966;7.002;2022-07-29T00:16:31;4.20;;;1.55;;
20383;SDS011;46458;50.966;7.002;2022-07-29T00:19:02;4.60;;;1.63;;
20383;SDS011;46458;50.966;7.002;2022-07-29T00:21:34;4.55;;;1.90;;
20383;SDS011;46458;50.966;7.002;2022-07-29T00:24:03;3.72;;;1.85;;
20383;SDS011;46458;50.966;7.002;2022-07-29T00:26:32;4.35;;;2.05;;
20383;SDS011;46458;50.966;7.002;2022-07-29T00:29:04;2.17;;;1.67;;
20383;SDS011;46458;50.966;7.002;2022-07-29T00:31:36;3.40;;;1.90;;
20383;SDS011;46458;50.966;7.002;2022-07-29T00:34:05;4.20;;;1.98;;
20383;SDS011;46458;50.966;7.002;2022-07-29T00:36:57;4.43;;;1.80;;
20383;SDS011;46458;50.966;7.002;2022-07-29T00:39:23;6.32;;;1.77;;
20383;SDS011;46458;50.966;7.002;2022-07-29T00:41:52;3.75;;;1.63;;
20383;SDS011;46458;50.966;7.002;2022-07-29T00:44:21;2.88;;;1.75;;
20383;SDS011;46458;50.966;7.002;2022-07-29T00:47:00;4.93;;;2.03;;
20383;SDS011;46458;50.966;7.002;2022-07-29T00:49:31;3.42;;;1.65;;
20383;SDS011;46458;50.966;7.002;2022-07-29T00:52:04;2.95;;;1.65;;
20383;SDS011;46458;50.966;7.002;2022-07-29T00:54:34;3.63;;;1.48;;
20383;SDS011;46458;50.966;7.002;2022-07-29T00:57:04;3.05;;;1.75;;
20383;SDS011;46458;50.966;7.002;2022-07-29T00:59:36;3.25;;;1.40;;
20383;SDS011;46458;50.966;7.002;2022-07-29T01:02:08;4.03;;;1.77;;
20383;SDS011;46458;50.966;7.002;2022-07-29T01:04:37;3.85;;;1.88;;
20383;SDS011;46458;50.966;7.002;2022-07-29T01:07:06;2.90;;;1.77;;
20383;SDS011;46458;50.966;7.002;2022-07-29T01:09:35;3.42;;;1.88;;
20383;SDS011;46458;50.966;7.002;2022-07-29T01:12:06;3.97;;;2.05;;
20383;SDS011;46458;50.966;7.002;2022-07-29T01:14:38;3.72;;;2.08;;
20383;SDS011;46458;50.966;7.002;2022-07-29T01:17:11;6.03;;;2.22;;
20383;SDS011;46458;50.966;7.002;2022-07-29T01:19:49;3.53;;;2.03;;
20383;SDS011;46458;50.966;7.002;2022-07-29T01:22:35;3.67;;;1.90;;
20383;SDS011;46458;50.966;7.002;2022-07-29T01:25:19;4.60;;;2.03;;
20383;SDS011;46458;50.966;7.002;2022-07-29T01:31:18;4.00;;;2.10;;
20383;SDS011;46458;50.966;7.002;2022-07-29T01:33:55;4.60;;;2.03;;
20383;SDS011;46458;50.966;7.002;2022-07-29T01:36:31;3.95;;;1.80;;
20383;SDS011;46458;50.966;7.002;2022-07-29T01:39:05;5.03;;;2.45;;
20383;SDS011;46458;50.966;7.002;2022-07-29T01:41:38;5.53;;;2.60;;
20383;SDS011;46458;50.966;7.002;2022-07-29T01:44:20;2.65;;;1.83;;
20383;SDS011;46458;50.966;7.002;2022-07-29T01:46:56;5.50;;;2.60;;
20383;SDS011;46458;50.966;7.002;2022-07-29T01:49:29;4.85;;;2.30;;
20383;SDS011;46458;50.966;7.002;2022-07-29T01:52:05;6.25;;;2.47;;
20383;SDS011;46458;50.966;7.002;2022-07-29T01:54:39;6.70;;;2.35;;
20383;SDS011;46458;50.966;7.002;2022-07-29T01:57:12;5.57;;;2.30;;
20383;SDS011;46458;50.966;7.002;2022-07-29T01:59:45;6.30;;;2.45;;
20383;SDS011;46458;50.966;7.002;2022-07-29T02:02:16;3.78;;;2.38;;
20383;SDS011;46458;50.966;7.002;2022-07-29T02:04:48;5.53;;;2.30;;
20383;SDS011;46458;50.966;7.002;2022-07-29T02:07:21;5.53;;;2.72;;
20383;SDS011;46458;50.966;7.002;2022-07-29T02:09:54;5.95;;;2.70;;
20383;SDS011;46458;50.966;7.002;2022-07-29T02:12:25;3.50;;;2.10;;
20383;SDS011;46458;50.966;7.002;2022-07-29T02:14:59;4.72;;;2.10;;
20383;SDS011;46458;50.966;7.002;2022-07-29T02:17:32;5.30;;;2.20;;
20383;SDS011;46458;50.966;7.002;2022-07-29T02:20:03;5.63;;;2.25;;
20383;SDS011;46458;50.966;7.002;2022-07-29T02:22:34;2.72;;;1.80;;
20383;SDS011;46458;50.966;7.002;2022-07-29T02:25:06;4.13;;;1.90;;
20383;SDS011;46458;50.966;7.002;2022-07-29T02:27:38;4.88;;;2.08;;
20383;SDS011;46458;50.966;7.002;2022-07-29T02:30:19;4.68;;;1.90;;
20383;SDS011;46458;50.966;7.002;2022-07-29T02:32:50;5.32;;;2.22;;
20383;SDS011;46458;50.966;7.002;2022-07-29T02:35:19;4.00;;;2.00;;
20383;SDS011;46458;50.966;7.002;2022-07-29T02:37:52;5.78;;;2.10;;
20383;SDS011;46458;50.966;7.002;2022-07-29T02:40:35;4.97;;;1.90;;
20383;SDS011;46458;50.966;7.002;2022-07-29T02:43:06;2.90;;;2.00;;
20383;SDS011;46458;50.966;7.002;2022-07-29T02:45:38;3.47;;;2.10;;
20383;SDS011;46458;50.966;7.002;2022-07-29T02:48:10;4.25;;;2.08;;
20383;SDS011;46458;50.966;7.002;2022-07-29T02:50:44;9.05;;;2.25;;
20383;SDS011;46458;50.966;7.002;2022-07-29T02:53:19;4.47;;;1.95;;
20383;SDS011;46458;50.966;7.002;2022-07-29T02:55:55;4.28;;;2.20;;
20383;SDS011;46458;50.966;7.002;2022-07-29T02:58:30;3.47;;;1.98;;
20383;SDS011;46458;50.966;7.002;2022-07-29T03:01:14;7.18;;;2.03;;
20383;SDS011;46458;50.966;7.002;2022-07-29T03:03:47;5.80;;;2.40;;
20383;SDS011;46458;50.966;7.002;2022-07-29T03:06:18;6.47;;;2.00;;
20383;SDS011;46458;50.966;7.002;2022-07-29T03:08:48;3.42;;;1.90;;
20383;SDS011;46458;50.966;7.002;2022-07-29T03:11:18;2.22;;;1.83;;
20383;SDS011;46458;50.966;7.002;2022-07-29T03:13:47;3.72;;;2.05;;
20383;SDS011;46458;50.966;7.002;2022-07-29T03:16:22;3.88;;;1.65;;
20383;SDS011;46458;50.966;7.002;2022-07-29T03:18:53;2.85;;;1.90;;
20383;SDS011;46458;50.966;7.002;2022-07-29T03:21:23;3.90;;;1.73;;
20383;SDS011;46458;50.966;7.002;2022-07-29T03:23:52;5.10;;;2.47;;
20383;SDS011;46458;50.966;7.002;2022-07-29T03:26:20;3.28;;;2.00;;
20383;SDS011;46458;50.966;7.002;2022-07-29T03:28:49;3.50;;;2.20;;
20383;SDS011;46458;50.966;7.002;2022-07-29T03:31:18;2.35;;;1.70;;
20383;SDS011;46458;50.966;7.002;2022-07-29T03:33:50;6.03;;;1.70;;
20383;SDS011;46458;50.966;7.002;2022-07-29T03:36:19;5.38;;;1.95;;
20383;SDS011;46458;50.966;7.002;2022-07-29T03:38:48;6.88;;;1.88;;
20383;SDS011;46458;50.966;7.002;2022-07-29T03:41:20;3.63;;;1.88;;
20383;SDS011;46458;50.966;7.002;2022-07-29T03:43:51;4.55;;;2.00;;
20383;SDS011;46458;50.966;7.002;2022-07-29T03:46:22;4.30;;;2.10;;
20383;SDS011;46458;50.966;7.002;2022-07-29T03:48:58;4.68;;;2.05;;
20383;SDS011;46458;50.966;7.002;2022-07-29T03:51:29;5.85;;;1.90;;
20383;SDS011;46458;50.966;7.002;2022-07-29T03:53:59;4.75;;;1.98;;
20383;SDS011;46458;50.966;7.002;2022-07-29T03:56:28;4.22;;;1.95;;
20383;SDS011;46458;50.966;7.002;2022-07-29T03:59:01;7.63;;;2.30;;
20383;SDS011;46458;50.966;7.002;2022-07-29T04:01:34;3.08;;;1.88;;
20383;SDS011;46458;50.966;7.002;2022-07-29T04:04:07;5.75;;;2.25;;
20383;SDS011;46458;50.966;7.002;2022-07-29T04:06:37;6.85;;;2.00;;
20383;SDS011;46458;50.966;7.002;2022-07-29T04:09:07;3.47;;;1.98;;
20383;SDS011;46458;50.966;7.002;2022-07-29T04:11:38;4.90;;;1.95;;
20383;SDS011;46458;50.966;7.002;2022-07-29T04:14:07;4.13;;;2.00;;
20383;SDS011;46458;50.966;7.002;2022-07-29T04:16:39;7.18;;;2.30;;
20383;SDS011;46458;50.966;7.002;2022-07-29T04:19:10;3.80;;;1.90;;
20383;SDS011;46458;50.966;7.002;2022-07-29T04:21:39;4.10;;;2.30;;
20383;SDS011;46458;50.966;7.002;2022-07-29T04:24:10;3.67;;;2.30;;
20383;SDS011;46458;50.966;7.002;2022-07-29T04:26:39;5.50;;;2.25;;
20383;SDS011;46458;50.966;7.002;2022-07-29T04:29:10;4.43;;;2.30;;
20383;SDS011;46458;50.966;7.002;2022-07-29T04:31:39;4.63;;;2.47;;
20383;SDS011;46458;50.966;7.002;2022-07-29T04:34:11;6.38;;;2.70;;
20383;SDS011;46458;50.966;7.002;2022-07-29T04:36:43;5.55;;;2.70;;
20383;SDS011;46458;50.966;7.002;2022-07-29T04:39:13;6.03;;;2.97;;
20383;SDS011;46458;50.966;7.002;2022-07-29T04:41:43;6.03;;;2.58;;
20383;SDS011;46458;50.966;7.002;2022-07-29T04:44:15;5.60;;;2.10;;
20383;SDS011;46458;50.966;7.002;2022-07-29T04:46:44;4.88;;;2.30;;
20383;SDS011;46458;50.966;7.002;2022-07-29T04:49:15;6.45;;;2.33;;
20383;SDS011;46458;50.966;7.002;2022-07-29T04:51:47;6.22;;;2.05;;
20383;SDS011;46458;50.966;7.002;2022-07-29T04:54:16;4.60;;;2.03;;
20383;SDS011;46458;50.966;7.002;2022-07-29T04:56:45;6.50;;;2.28;;
20383;SDS011;46458;50.966;7.002;2022-07-29T04:59:13;4.43;;;1.88;;
20383;SDS011;46458;50.966;7.002;2022-07-29T05:01:50;4.90;;;1.90;;
20383;SDS011;46458;50.966;7.002;2022-07-29T05:04:22;6.70;;;2.33;;
20383;SDS011;46458;50.966;7.002;2022-07-29T05:06:50;9.07;;;2.45;;
20383;SDS011;46458;50.966;7.002;2022-07-29T05:09:19;4.75;;;2.03;;
20383;SDS011;46458;50.966;7.002;2022-07-29T05:11:51;3.83;;;2.22;;
20383;SDS011;46458;50.966;7.002;2022-07-29T05:14:20;2.85;;;1.85;;
20383;SDS011;46458;50.966;7.002;2022-07-29T05:16:48;4.70;;;2.10;;
20383;SDS011;46458;50.966;7.002;2022-07-29T05:19:18;3.13;;;2.03;;
20383;SDS011;46458;50.966;7.002;2022-07-29T05:21:49;4.57;;;2.40;;
20383;SDS011;46458;50.966;7.002;2022-07-29T05:24:19;2.85;;;2.13;;
20383;SDS011;46458;50.966;7.002;2022-07-29T05:26:48;6.78;;;2.08;;
20383;SDS011;46458;50.966;7.002;2022-07-29T05:29:17;4.90;;;1.98;;
20383;SDS011;46458;50.966;7.002;2022-07-29T05:31:49;4.00;;;1.83;;
20383;SDS011;46458;50.966;7.002;2022-07-29T05:34:20;5.88;;;1.95;;
20383;SDS011;46458;50.966;7.002;2022-07-29T05:36:54;7.15;;;1.95;;
20383;SDS011;46458;50.966;7.002;2022-07-29T05:39:23;5.88;;;1.92;;
20383;SDS011;46458;50.966;7.002;2022-07-29T05:41:52;6.30;;;1.95;;
20383;SDS011;46458;50.966;7.002;2022-07-29T05:44:24;7.22;;;2.10;;
20383;SDS011;46458;50.966;7.002;2022-07-29T05:46:52;5.13;;;1.80;;
20383;SDS011;46458;50.966;7.002;2022-07-29T05:49:21;5.53;;;1.90;;
20383;SDS011;46458;50.966;7.002;2022-07-29T05:51:56;4.78;;;1.90;;
20383;SDS011;46458;50.966;7.002;2022-07-29T05:54:24;5.57;;;2.38;;
20383;SDS011;46458;50.966;7.002;2022-07-29T05:56:56;8.27;;;2.10;;
20383;SDS011;46458;50.966;7.002;2022-07-29T05:59:25;4.60;;;1.90;;
20383;SDS011;46458;50.966;7.002;2022-07-29T06:01:54;5.43;;;2.05;;
20383;SDS011;46458;50.966;7.002;2022-07-29T06:04:23;4.93;;;2.03;;
20383;SDS011;46458;50.966;7.002;2022-07-29T06:06:51;4.68;;;2.10;;
20383;SDS011;46458;50.966;7.002;2022-07-29T06:09:23;4.63;;;1.73;;
20383;SDS011;46458;50.966;7.002;2022-07-29T06:11:52;8.55;;;2.22;;
20383;SDS011;46458;50.966;7.002;2022-07-29T06:14:24;4.25;;;1.70;;
20383;SDS011;46458;50.966;7.002;2022-07-29T06:16:53;6.18;;;1.90;;
20383;SDS011;46458;50.966;7.002;2022-07-29T06:19:24;5.03;;;1.80;;
20383;SDS011;46458;50.966;7.002;2022-07-29T06:21:53;2.50;;;1.95;;
20383;SDS011;46458;50.966;7.002;2022-07-29T06:24:25;4.07;;;1.73;;
20383;SDS011;46458;50.966;7.002;2022-07-29T06:26:54;4.85;;;1.98;;
20383;SDS011;46458;50.966;7.002;2022-07-29T06:29:23;8.88;;;1.85;;
20383;SDS011;46458;50.966;7.002;2022-07-29T06:31:51;6.03;;;2.00;;
20383;SDS011;46458;50.966;7.002;2022-07-29T06:34:21;5.10;;;2.42;;
20383;SDS011;46458;50.966;7.002;2022-07-29T06:36:50;4.22;;;2.17;;
20383;SDS011;46458;50.966;7.002;2022-07-29T06:39:19;6.05;;;2.30;;
20383;SDS011;46458;50.966;7.002;2022-07-29T06:41:51;4.80;;;1.80;;
20383;SDS011;46458;50.966;7.002;2022-07-29T06:44:23;6.72;;;2.20;;
20383;SDS011;46458;50.966;7.002;2022-07-29T06:46:52;3.78;;;2.25;;
20383;SDS011;46458;50.966;7.002;2022-07-29T06:49:21;6.45;;;2.10;;
20383;SDS011;46458;50.966;7.002;2022-07-29T06:51:54;5.90;;;2.03;;
20383;SDS011;46458;50.966;7.002;2022-07-29T06:54:23;4.97;;;2.03;;
20383;SDS011;46458;50.966;7.002;2022-07-29T06:56:55;3.33;;;1.67;;
20383;SDS011;46458;50.966;7.002;2022-07-29T06:59:27;5.97;;;2.15;;
20383;SDS011;46458;50.966;7.002;2022-07-29T07:01:57;5.35;;;2.17;;
20383;SDS011;46458;50.966;7.002;2022-07-29T07:04:26;7.00;;;1.98;;
20383;SDS011;46458;50.966;7.002;2022-07-29T07:06:55;5.97;;;2.10;;
20383;SDS011;46458;50.966;7.002;2022-07-29T07:09:24;7.00;;;2.05;;
20383;SDS011;46458;50.966;7.002;2022-07-29T07:11:58;5.50;;;2.38;;
20383;SDS011;46458;50.966;7.002;2022-07-29T07:14:29;7.93;;;2.75;;
20383;SDS011;46458;50.966;7.002;2022-07-29T07:16:58;9.43;;;2.15;;
20383;SDS011;46458;50.966;7.002;2022-07-29T07:19:29;7.20;;;2.33;;
20383;SDS011;46458;50.966;7.002;2022-07-29T07:21:57;3.03;;;2.00;;
20383;SDS011;46458;50.966;7.002;2022-07-29T07:24:26;4.75;;;2.15;;
20383;SDS011;46458;50.966;7.002;2022-07-29T07:26:58;10.95;;;3.03;;
20383;SDS011;46458;50.966;7.002;2022-07-29T07:29:27;5.70;;;2.25;;
20383;SDS011;46458;50.966;7.002;2022-07-29T07:31:57;3.30;;;1.80;;
20383;SDS011;46458;50.966;7.002;2022-07-29T07:34:25;5.65;;;2.28;;
20383;SDS011;46458;50.966;7.002;2022-07-29T07:36:55;4.00;;;1.98;;
20383;SDS011;46458;50.966;7.002;2022-07-29T07:39:24;7.53;;;2.00;;
20383;SDS011;46458;50.966;7.002;2022-07-29T07:41:53;9.80;;;2.47;;
20383;SDS011;46458;50.966;7.002;2022-07-29T07:44:25;4.53;;;2.08;;
20383;SDS011;46458;50.966;7.002;2022-07-29T07:46:56;6.35;;;2.33;;
20383;SDS011;46458;50.966;7.002;2022-07-29T07:49:25;3.35;;;2.30;;
20383;SDS011;46458;50.966;7.002;2022-07-29T07:51:54;7.00;;;2.42;;
20383;SDS011;46458;50.966;7.002;2022-07-29T07:54:23;4.53;;;1.92;;
20383;SDS011;46458;50.966;7.002;2022-07-29T07:56:52;9.02;;;2.22;;
20383;SDS011;46458;50.966;7.002;2022-07-29T07:59:21;8.10;;;3.13;;
20383;SDS011;46458;50.966;7.002;2022-07-29T08:01:55;7.07;;;2.50;;
20383;SDS011;46458;50.966;7.002;2022-07-29T08:04:25;5.72;;;2.45;;
20383;SDS011;46458;50.966;7.002;2022-07-29T08:06:54;5.50;;;2.63;;
20383;SDS011;46458;50.966;7.002;2022-07-29T08:09:24;4.50;;;2.67;;
20383;SDS011;46458;50.966;7.002;2022-07-29T08:11:53;5.78;;;2.78;;
20383;SDS011;46458;50.966;7.002;2022-07-29T08:14:23;8.30;;;2.60;;
20383;SDS011;46458;50.966;7.002;2022-07-29T08:16:52;5.60;;;2.53;;
20383;SDS011;46458;50.966;7.002;2022-07-29T08:19:23;8.25;;;3.00;;
20383;SDS011;46458;50.966;7.002;2022-07-29T08:21:52;8.90;;;2.53;;
20383;SDS011;46458;50.966;7.002;2022-07-29T08:24:22;7.72;;;4.28;;
20383;SDS011;46458;50.966;7.002;2022-07-29T08:27:03;7.97;;;2.97;;
20383;SDS011;46458;50.966;7.002;2022-07-29T08:29:32;6.72;;;2.83;;
20383;SDS011;46458;50.966;7.002;2022-07-29T08:32:06;10.45;;;2.83;;
20383;SDS011;46458;50.966;7.002;2022-07-29T08:34:35;7.72;;;2.40;;
20383;SDS011;46458;50.966;7.002;2022-07-29T08:37:04;7.40;;;2.38;;
20383;SDS011;46458;50.966;7.002;2022-07-29T08:39:33;5.97;;;2.90;;
20383;SDS011;46458;50.966;7.002;2022-07-29T08:42:05;7.15;;;2.55;;
20383;SDS011;46458;50.966;7.002;2022-07-29T08:44:35;4.93;;;2.40;;
20383;SDS011;46458;50.966;7.002;2022-07-29T08:47:09;4.68;;;2.50;;
20383;SDS011;46458;50.966;7.002;2022-07-29T08:49:41;5.03;;;2.63;;
20383;SDS011;46458;50.966;7.002;2022-07-29T08:52:12;10.60;;;2.83;;
20383;SDS011;46458;50.966;7.002;2022-07-29T08:54:43;5.20;;;2.58;;
20383;SDS011;46458;50.966;7.002;2022-07-29T08:57:12;4.03;;;2.35;;
20383;SDS011;46458;50.966;7.002;2022-07-29T08:59:42;6.88;;;2.25;;
20383;SDS011;46458;50.966;7.002;2022-07-29T09:02:18;6.38;;;3.40;;
20383;SDS011;46458;50.966;7.002;2022-07-29T09:04:48;7.18;;;2.35;;
20383;SDS011;46458;50.966;7.002;2022-07-29T09:07:18;5.47;;;2.55;;
20383;SDS011;46458;50.966;7.002;2022-07-29T09:09:47;4.95;;;2.35;;
20383;SDS011;46458;50.966;7.002;2022-07-29T09:12:16;7.88;;;2.60;;
20383;SDS011;46458;50.966;7.002;2022-07-29T09:14:47;7.90;;;2.63;;
20383;SDS011;46458;50.966;7.002;2022-07-29T09:17:20;7.13;;;2.67;;
20383;SDS011;46458;50.966;7.002;2022-07-29T09:20:08;6.35;;;2.70;;
20383;SDS011;46458;50.966;7.002;2022-07-29T09:22:39;6.00;;;2.47;;
20383;SDS011;46458;50.966;7.002;2022-07-29T09:25:08;5.60;;;3.00;;
20383;SDS011;46458;50.966;7.002;2022-07-29T09:27:40;8.60;;;3.22;;
20383;SDS011;46458;50.966;7.002;2022-07-29T09:30:17;5.72;;;2.50;;
20383;SDS011;46458;50.966;7.002;2022-07-29T09:32:56;8.90;;;3.22;;
20383;SDS011;46458;50.966;7.002;2022-07-29T09:35:28;6.03;;;3.00;;
20383;SDS011;46458;50.966;7.002;2022-07-29T09:37:58;4.50;;;2.90;;
20383;SDS011;46458;50.966;7.002;2022-07-29T09:40:39;9.50;;;3.58;;
20383;SDS011;46458;50.966;7.002;2022-07-29T09:43:11;8.00;;;2.90;;
20383;SDS011;46458;50.966;7.002;2022-07-29T09:45:41;7.43;;;3.72;;
20383;SDS011;46458;50.966;7.002;2022-07-29T09:48:16;7.45;;;3.40;;
20383;SDS011;46458;50.966;7.002;2022-07-29T09:50:49;5.45;;;2.90;;
20383;SDS011;46458;50.966;7.002;2022-07-29T09:53:31;10.05;;;3.35;;
20383;SDS011;46458;50.966;7.002;2022-07-29T09:56:02;5.50;;;2.85;;
20383;SDS011;46458;50.966;7.002;2022-07-29T09:58:32;6.70;;;3.53;;
20383;SDS011;46458;50.966;7.002;2022-07-29T10:01:01;6.65;;;3.63;;
20383;SDS011;46458;50.966;7.002;2022-07-29T10:03:35;5.63;;;4.15;;
20383;SDS011;46458;50.966;7.002;2022-07-29T10:06:19;7.30;;;3.67;;
20383;SDS011;46458;50.966;7.002;2022-07-29T10:08:47;8.35;;;3.75;;
20383;SDS011;46458;50.966;7.002;2022-07-29T10:11:18;7.63;;;3.58;;
20383;SDS011;46458;50.966;7.002;2022-07-29T10:13:51;9.25;;;3.72;;
20383;SDS011;46458;50.966;7.002;2022-07-29T10:16:20;7.93;;;3.63;;
20383;SDS011;46458;50.966;7.002;2022-07-29T10:18:52;7.35;;;3.58;;
20383;SDS011;46458;50.966;7.002;2022-07-29T10:21:21;7.38;;;3.92;;
20383;SDS011;46458;50.966;7.002;2022-07-29T10:23:51;7.35;;;3.13;;
20383;SDS011;46458;50.966;7.002;2022-07-29T10:26:20;7.20;;;3.30;;
20383;SDS011;46458;50.966;7.002;2022-07-29T10:28:49;5.80;;;3.30;;
20383;SDS011;46458;50.966;7.002;2022-07-29T10:31:19;5.65;;;3.05;;
20383;SDS011;46458;50.966;7.002;2022-07-29T10:33:59;4.75;;;2.58;;
20383;SDS011;46458;50.966;7.002;2022-07-29T10:36:41;5.25;;;3.10;;
20383;SDS011;46458;50.966;7.002;2022-07-29T10:39:21;8.68;;;3.28;;
20383;SDS011;46458;50.966;7.002;2022-07-29T10:42:02;4.32;;;2.75;;
20383;SDS011;46458;50.966;7.002;2022-07-29T10:44:42;7.15;;;3.28;;
20383;SDS011;46458;50.966;7.002;2022-07-29T10:50:02;4.90;;;3.03;;
20383;SDS011;46458;50.966;7.002;2022-07-29T10:55:31;7.53;;;3.03;;
20383;SDS011;46458;50.966;7.002;2022-07-29T10:58:11;8.63;;;3.17;;
20383;SDS011;46458;50.966;7.002;2022-07-29T11:00:41;11.13;;;3.28;;
20383;SDS011;46458;50.966;7.002;2022-07-29T11:06:16;7.90;;;3.70;;
20383;SDS011;46458;50.966;7.002;2022-07-29T11:08:45;8.50;;;2.95;;
20383;SDS011;46458;50.966;7.002;2022-07-29T11:11:45;5.22;;;2.85;;
20383;SDS011;46458;50.966;7.002;2022-07-29T11:14:16;6.28;;;2.88;;
20383;SDS011;46458;50.966;7.002;2022-07-29T11:19:35;7.25;;;3.72;;
20383;SDS011;46458;50.966;7.002;2022-07-29T11:22:10;5.95;;;3.30;;
20383;SDS011;46458;50.966;7.002;2022-07-29T11:25:14;5.40;;;2.63;;
20383;SDS011;46458;50.966;7.002;2022-07-29T11:27:44;7.78;;;3.63;;
20383;SDS011;46458;50.966;7.002;2022-07-29T11:30:13;5.35;;;3.03;;
20383;SDS011;46458;50.966;7.002;2022-07-29T11:32:43;5.03;;;2.85;;
20383;SDS011;46458;50.966;7.002;2022-07-29T11:35:14;5.57;;;3.22;;
20383;SDS011;46458;50.966;7.002;2022-07-29T11:38:23;7.05;;;3.03;;
20383;SDS011;46458;50.966;7.002;2022-07-29T11:43:48;6.20;;;2.88;;
20383;SDS011;46458;50.966;7.002;2022-07-29T11:49:18;6.53;;;2.70;;
20383;SDS011;46458;50.966;7.002;2022-07-29T11:51:51;4.88;;;2.70;;
20383;SDS011;46458;50.966;7.002;2022-07-29T11:54:24;4.32;;;2.72;;
20383;SDS011;46458;50.966;7.002;2022-07-29T11:56:57;7.00;;;2.42;;
20383;SDS011;46458;50.966;7.002;2022-07-29T11:59:28;7.00;;;2.67;;
20383;SDS011;46458;50.966;7.002;2022-07-29T12:01:59;5.63;;;3.05;;
20383;SDS011;46458;50.966;7.002;2022-07-29T12:04:28;7.25;;;2.53;;
20383;SDS011;46458;50.966;7.002;2022-07-29T12:06:57;5.60;;;2.25;;
20383;SDS011;46458;50.966;7.002;2022-07-29T12:09:28;4.75;;;2.65;;
20383;SDS011;46458;50.966;7.002;2022-07-29T12:11:58;4.00;;;2.28;;
20383;SDS011;46458;50.966;7.002;2022-07-29T12:14:27;5.53;;;2.60;;
20383;SDS011;46458;50.966;7.002;2022-07-29T12:16:57;7.25;;;2.40;;
20383;SDS011;46458;50.966;7.002;2022-07-29T12:19:29;3.60;;;2.50;;
20383;SDS011;46458;50.966;7.002;2022-07-29T12:22:10;5.07;;;2.50;;
20383;SDS011;46458;50.966;7.002;2022-07-29T12:24:50;5.55;;;2.40;;
20383;SDS011;46458;50.966;7.002;2022-07-29T12:27:18;4.32;;;2.45;;
20383;SDS011;46458;50.966;7.002;2022-07-29T12:29:55;4.32;;;2.40;;
20383;SDS011;46458;50.966;7.002;2022-07-29T12:32:31;4.32;;;2.10;;
20383;SDS011;46458;50.966;7.002;2022-07-29T12:35:04;4.40;;;2.42;;
20383;SDS011;46458;50.966;7.002;2022-07-29T12:37:35;3.30;;;2.22;;
20383;SDS011;46458;50.966;7.002;2022-07-29T12:40:09;4.80;;;2.20;;
20383;SDS011;46458;50.966;7.002;2022-07-29T12:42:40;3.85;;;2.15;;
20383;SDS011;46458;50.966;7.002;2022-07-29T12:45:28;3.28;;;2.15;;
20383;SDS011;46458;50.966;7.002;2022-07-29T12:47:57;10.38;;;7.10;;
20383;SDS011;46458;50.966;7.002;2022-07-29T12:50:29;5.82;;;3.92;;
20383;SDS011;46458;50.966;7.002;2022-07-29T12:55:45;4.32;;;2.30;;
20383;SDS011;46458;50.966;7.002;2022-07-29T12:58:32;5.07;;;2.25;;
20383;SDS011;46458;50.966;7.002;2022-07-29T13:01:03;3.80;;;2.08;;
20383;SDS011;46458;50.966;7.002;2022-07-29T13:03:47;4.20;;;2.40;;
20383;SDS011;46458;50.966;7.002;2022-07-29T13:06:26;6.85;;;2.20;;
20383;SDS011;46458;50.966;7.002;2022-07-29T13:09:01;5.07;;;2.15;;
20383;SDS011;46458;50.966;7.002;2022-07-29T13:11:35;3.67;;;2.30;;
20383;SDS011;46458;50.966;7.002;2022-07-29T13:14:06;3.47;;;1.90;;
20383;SDS011;46458;50.966;7.002;2022-07-29T13:16:36;4.53;;;2.10;;
20383;SDS011;46458;50.966;7.002;2022-07-29T13:19:32;2.45;;;2.20;;
20383;SDS011;46458;50.966;7.002;2022-07-29T13:22:02;3.92;;;2.03;;
20383;SDS011;46458;50.966;7.002;2022-07-29T13:24:44;5.22;;;2.58;;
20383;SDS011;46458;50.966;7.002;2022-07-29T13:27:17;4.57;;;2.55;;
20383;SDS011;46458;50.966;7.002;2022-07-29T13:29:47;5.82;;;2.03;;
20383;SDS011;46458;50.966;7.002;2022-07-29T13:32:17;5.55;;;2.10;;
20383;SDS011;46458;50.966;7.002;2022-07-29T13:34:48;3.58;;;2.05;;
20383;SDS011;46458;50.966;7.002;2022-07-29T13:37:17;4.43;;;1.90;;
20383;SDS011;46458;50.966;7.002;2022-07-29T13:39:46;5.13;;;2.30;;
20383;SDS011;46458;50.966;7.002;2022-07-29T13:42:18;7.05;;;2.90;;
20383;SDS011;46458;50.966;7.002;2022-07-29T13:44:47;4.95;;;2.38;;
20383;SDS011;46458;50.966;7.002;2022-07-29T13:47:17;6.50;;;2.60;;
20383;SDS011;46458;50.966;7.002;2022-07-29T13:49:46;5.85;;;2.63;;
20383;SDS011;46458;50.966;7.002;2022-07-29T13:52:18;7.25;;;3.35;;
20383;SDS011;46458;50.966;7.002;2022-07-29T13:54:47;8.23;;;2.97;;
20383;SDS011;46458;50.966;7.002;2022-07-29T13:57:19;4.72;;;2.33;;
20383;SDS011;46458;50.966;7.002;2022-07-29T13:59:47;3.75;;;2.80;;
20383;SDS011;46458;50.966;7.002;2022-07-29T14:02:16;10.02;;;3.13;;
20383;SDS011;46458;50.966;7.002;2022-07-29T14:04:45;7.45;;;2.97;;
20383;SDS011;46458;50.966;7.002;2022-07-29T14:07:15;6.18;;;3.42;;
20383;SDS011;46458;50.966;7.002;2022-07-29T14:09:46;6.65;;;3.03;;
20383;SDS011;46458;50.966;7.002;2022-07-29T14:12:15;5.90;;;3.22;;
20383;SDS011;46458;50.966;7.002;2022-07-29T14:14:50;4.35;;;3.03;;
20383;SDS011;46458;50.966;7.002;2022-07-29T14:17:19;5.80;;;3.00;;
20383;SDS011;46458;50.966;7.002;2022-07-29T14:19:52;5.38;;;3.22;;
20383;SDS011;46458;50.966;7.002;2022-07-29T14:22:21;7.63;;;3.60;;
20383;SDS011;46458;50.966;7.002;2022-07-29T14:24:50;4.80;;;3.13;;
20383;SDS011;46458;50.966;7.002;2022-07-29T14:27:22;7.65;;;3.28;;
20383;SDS011;46458;50.966;7.002;2022-07-29T14:29:50;6.00;;;4.03;;
20383;SDS011;46458;50.966;7.002;2022-07-29T14:32:25;7.10;;;3.63;;
20383;SDS011;46458;50.966;7.002;2022-07-29T14:34:54;8.38;;;3.13;;
20383;SDS011;46458;50.966;7.002;2022-07-29T14:37:23;4.85;;;2.95;;
20383;SDS011;46458;50.966;7.002;2022-07-29T14:39:51;4.88;;;3.10;;
20383;SDS011;46458;50.966;7.002;2022-07-29T14:42:27;6.20;;;3.40;;
20383;SDS011;46458;50.966;7.002;2022-07-29T14:44:56;8.43;;;3.10;;
20383;SDS011;46458;50.966;7.002;2022-07-29T14:47:25;6.97;;;3.08;;
20383;SDS011;46458;50.966;7.002;2022-07-29T14:49:59;7.05;;;3.25;;
20383;SDS011;46458;50.966;7.002;2022-07-29T14:52:31;5.45;;;2.97;;
20383;SDS011;46458;50.966;7.002;2022-07-29T14:55:00;5.75;;;3.13;;
20383;SDS011;46458;50.966;7.002;2022-07-29T14:57:36;3.88;;;2.70;;
20383;SDS011;46458;50.966;7.002;2022-07-29T15:00:08;6.68;;;3.10;;
20383;SDS011;46458;50.966;7.002;2022-07-29T15:02:38;7.28;;;3.00;;
20383;SDS011;46458;50.966;7.002;2022-07-29T15:05:07;4.07;;;2.50;;
20383;SDS011;46458;50.966;7.002;2022-07-29T15:07:36;6.40;;;2.92;;
20383;SDS011;46458;50.966;7.002;2022-07-29T15:10:05;11.13;;;3.15;;
20383;SDS011;46458;50.966;7.002;2022-07-29T15:12:37;7.47;;;3.20;;
20383;SDS011;46458;50.966;7.002;2022-07-29T15:15:06;3.63;;;2.65;;
20383;SDS011;46458;50.966;7.002;2022-07-29T15:17:35;4.68;;;2.65;;
20383;SDS011;46458;50.966;7.002;2022-07-29T15:20:05;7.05;;;4.22;;
20383;SDS011;46458;50.966;7.002;2022-07-29T15:22:34;4.32;;;2.78;;
20383;SDS011;46458;50.966;7.002;2022-07-29T15:25:06;3.63;;;2.50;;
20383;SDS011;46458;50.966;7.002;2022-07-29T15:27:38;8.05;;;2.65;;
20383;SDS011;46458;50.966;7.002;2022-07-29T15:30:08;8.82;;;2.78;;
20383;SDS011;46458;50.966;7.002;2022-07-29T15:32:38;4.97;;;3.05;;
20383;SDS011;46458;50.966;7.002;2022-07-29T15:35:09;7.30;;;3.10;;
20383;SDS011;46458;50.966;7.002;2022-07-29T15:37:38;7.30;;;2.88;;
20383;SDS011;46458;50.966;7.002;2022-07-29T15:40:08;4.43;;;2.78;;